Time;durP1;ratioP1;P1;durP2;ratioP2;P2;SDS_P1;SDS_P2;PMS_P1;PMS_P2;Temp;Humidity;BMP_temperature;BMP_pressure;BME280_temperature;BME280_humidity;BME280_pressure;Samples;Min_cycle;Max_cycle;Signal;HPM_P1;HPM_P2
2022/02/15 00:02:09;;;;;;;;;4.50;3.00;;;;;9.63;100.00;100829.22;4993369;28;45537;-82
2022/02/15 00:04:34;;;;;;;;;3.75;3.00;;;;;9.62;100.00;100830.03;4993866;28;45570;-81
2022/02/15 00:07:00;;;;;;;;;5.50;5.00;;;;;9.56;100.00;100824.56;4993742;27;45509;-81
2022/02/15 00:09:25;;;;;;;;;2.25;2.25;;;;;9.51;100.00;100834.69;4996667;27;45404;-81
2022/02/15 00:11:51;;;;;;;;;5.00;5.00;;;;;9.45;100.00;100824.94;4994020;28;45334;-82
2022/02/15 00:14:17;;;;;;;;;4.00;3.00;;;;;9.48;100.00;100831.06;4993461;28;45279;-81
2022/02/15 00:16:44;;;;;;;;;5.25;3.75;;;;;9.45;100.00;100836.94;4993478;27;45460;-81
2022/02/15 00:19:09;;;;;;;;;5.00;4.00;;;;;9.40;100.00;100831.53;4993401;28;45759;-81
2022/02/15 00:21:35;;;;;;;;;4.00;3.00;;;;;9.42;100.00;100836.81;4976156;28;45398;-81
2022/02/15 00:24:01;;;;;;;;;5.00;4.00;;;;;9.43;100.00;100838.59;4993097;28;45344;-81
2022/02/15 00:26:27;;;;;;;;;2.00;2.00;;;;;9.44;100.00;100843.81;4993408;28;45899;-81
2022/02/15 00:28:53;;;;;;;;;3.00;2.00;;;;;9.45;100.00;100839.53;4992817;27;45759;-81
2022/02/15 00:31:19;;;;;;;;;3.00;3.00;;;;;9.44;100.00;100853.28;4992853;28;45560;-81
2022/02/15 00:33:45;;;;;;;;;4.50;3.00;;;;;9.43;100.00;100841.16;4992936;28;45672;-81
2022/02/15 00:36:10;;;;;;;;;4.75;3.00;;;;;9.42;100.00;100853.19;4993159;28;45608;-81
2022/02/15 00:38:36;;;;;;;;;6.25;2.00;;;;;9.42;100.00;100857.47;4992957;28;45319;-81
2022/02/15 00:41:03;;;;;;;;;1.00;1.00;;;;;9.39;100.00;100855.63;4992790;28;45343;-81
2022/02/15 00:43:28;;;;;;;;;5.00;3.00;;;;;9.33;100.00;100857.91;4991917;28;45561;-81
2022/02/15 00:45:54;;;;;;;;;2.00;2.00;;;;;9.36;100.00;100858.06;4977453;27;46399;-81
2022/02/15 00:48:20;;;;;;;;;5.00;3.25;;;;;9.41;100.00;100864.34;5032777;27;45362;-81
2022/02/15 00:50:45;;;;;;;;;3.50;2.75;;;;;9.36;100.00;100865.81;4993550;27;45289;-81
2022/02/15 00:53:11;;;;;;;;;2.75;2.00;;;;;9.37;100.00;100866.69;4992944;28;45458;-82
2022/02/15 00:55:37;;;;;;;;;4.00;3.25;;;;;9.41;100.00;100876.38;5007166;27;45422;-81
2022/02/15 00:58:03;;;;;;;;;4.00;4.00;;;;;9.46;100.00;100882.66;5096386;27;45330;-81
2022/02/15 01:00:28;;;;;;;;;3.75;3.75;;;;;9.47;100.00;100887.00;5061632;27;45367;-81
2022/02/15 01:02:54;;;;;;;;;1.00;1.00;;;;;9.43;100.00;100882.53;4974930;28;45696;-82
2022/02/15 01:05:20;;;;;;;;;4.50;2.75;;;;;9.43;100.00;100880.81;4975173;28;47660;-81
2022/02/15 01:07:45;;;;;;;;;3.00;3.00;;;;;9.39;100.00;100886.66;4992355;27;45487;-82
2022/02/15 01:10:11;;;;;;;;;2.75;2.75;;;;;9.35;100.00;100883.81;4990928;28;45493;-81
2022/02/15 01:12:37;;;;;;;;;3.25;2.25;;;;;9.33;100.00;100883.75;4993314;27;45528;-81
2022/02/15 01:15:05;;;;;;;;;2.75;2.75;;;;;9.38;100.00;100892.63;4992358;28;46170;-81
2022/02/15 01:17:30;;;;;;;;;3.00;2.00;;;;;9.42;100.00;100891.06;4992862;28;45439;-81
2022/02/15 01:19:56;;;;;;;;;4.00;3.25;;;;;9.41;100.00;100895.34;4992907;28;45326;-81
2022/02/15 01:22:21;;;;;;;;;5.00;3.25;;;;;9.40;100.00;100901.31;4992341;28;45441;-81
2022/02/15 01:24:47;;;;;;;;;3.50;3.00;;;;;9.44;100.00;100899.81;4991372;28;45425;-81
2022/02/15 01:27:13;;;;;;;;;6.00;3.00;;;;;9.40;100.00;100900.44;4993191;27;45567;-81
2022/02/15 01:29:38;;;;;;;;;2.75;2.00;;;;;9.38;100.00;100902.97;4992475;28;45392;-81
2022/02/15 01:32:05;;;;;;;;;3.00;2.25;;;;;9.37;100.00;100908.03;4973877;28;45426;-81
2022/02/15 01:34:30;;;;;;;;;4.00;3.00;;;;;9.35;100.00;100914.81;4992518;28;45429;-81
2022/02/15 01:36:56;;;;;;;;;1.50;1.50;;;;;9.38;100.00;100912.41;4993379;28;45315;-81
2022/02/15 01:39:21;;;;;;;;;3.25;2.75;;;;;9.38;100.00;100904.63;4992773;27;45342;-81
2022/02/15 01:41:48;;;;;;;;;2.75;2.00;;;;;9.37;100.00;100916.69;4976942;28;45451;-81
2022/02/15 01:44:17;;;;;;;;;4.00;2.50;;;;;9.28;100.00;100914.50;4995298;27;45403;-82
2022/02/15 01:46:43;;;;;;;;;2.50;2.00;;;;;9.25;100.00;100908.31;4993673;28;45552;-82
2022/02/15 01:49:09;;;;;;;;;2.50;2.00;;;;;9.24;100.00;100917.72;4995196;27;45447;-81
2022/02/15 01:51:34;;;;;;;;;1.00;1.00;;;;;9.22;100.00;100926.22;4995638;28;45312;-80
2022/02/15 01:54:00;;;;;;;;;2.50;1.00;;;;;9.17;100.00;100933.72;4994958;28;46139;-81
2022/02/15 01:56:27;;;;;;;;;1.00;1.00;;;;;9.15;100.00;100940.50;4995731;28;45440;-81
2022/02/15 01:58:55;;;;;;;;;2.50;1.75;;;;;9.14;100.00;100941.31;4994926;28;45690;-81
2022/02/15 02:01:20;;;;;;;;;2.50;1.00;;;;;9.14;100.00;100942.22;4994597;28;45515;-81
2022/02/15 02:03:46;;;;;;;;;2.00;2.00;;;;;9.20;100.00;100941.66;4994798;28;46242;-81
2022/02/15 02:06:11;;;;;;;;;2.00;1.25;;;;;9.23;100.00;100949.53;4995096;28;45433;-81
2022/02/15 02:08:37;;;;;;;;;2.75;2.00;;;;;9.23;100.00;100959.00;4994917;28;45502;-81
2022/02/15 02:11:03;;;;;;;;;2.50;2.50;;;;;9.15;100.00;100948.25;4995430;27;45354;-81
2022/02/15 02:13:29;;;;;;;;;4.00;2.25;;;;;9.11;100.00;100960.13;4995125;28;45410;-81
2022/02/15 02:15:55;;;;;;;;;2.00;2.00;;;;;9.09;100.00;100960.84;5053950;27;45310;-81
2022/02/15 02:18:21;;;;;;;;;2.00;2.00;;;;;9.12;100.00;100958.44;4995144;28;45319;-81
2022/02/15 02:20:48;;;;;;;;;2.25;1.25;;;;;9.08;100.00;100962.53;4993612;27;45481;-81
2022/02/15 02:23:16;;;;;;;;;3.50;3.00;;;;;9.11;100.00;100962.72;4994518;28;45534;-81
2022/02/15 02:25:42;;;;;;;;;2.25;2.00;;;;;9.18;100.00;100958.75;4994077;28;45316;-81
2022/02/15 02:28:09;;;;;;;;;2.00;2.00;;;;;9.19;100.00;100957.94;4993933;27;45370;-81
2022/02/15 02:30:36;;;;;;;;;2.00;2.00;;;;;9.21;100.00;100966.69;4993887;28;45480;-81
2022/02/15 02:33:02;;;;;;;;;1.00;1.00;;;;;9.26;100.00;100965.22;4977063;28;46181;-81
2022/02/15 02:35:27;;;;;;;;;4.50;1.75;;;;;9.25;100.00;100971.19;5009347;27;45903;-81
2022/02/15 02:37:53;;;;;;;;;3.25;1.00;;;;;9.24;100.00;100978.84;5075318;27;45407;-81
2022/02/15 02:40:19;;;;;;;;;1.00;1.00;;;;;9.14;100.00;100978.38;5073196;27;45682;-81
2022/02/15 02:42:45;;;;;;;;;2.75;2.00;;;;;9.07;100.00;100971.09;4999241;27;45594;-81
2022/02/15 02:45:22;;;;;;;;;2.75;1.50;;;;;9.09;100.00;100987.56;4993569;28;45867;-82
2022/02/15 02:47:51;;;;;;;;;4.00;3.00;;;;;9.07;100.00;100989.16;4975311;28;45581;-82
2022/02/15 02:50:18;;;;;;;;;4.75;2.00;;;;;9.02;100.00;100992.31;4990402;28;45363;-82
2022/02/15 02:52:44;;;;;;;;;1.75;1.00;;;;;9.02;100.00;100998.38;4998040;27;45886;-82
2022/02/15 02:55:11;;;;;;;;;1.75;1.00;;;;;8.98;100.00;100999.00;5018524;27;45929;-82
2022/02/15 02:57:37;;;;;;;;;5.25;2.25;;;;;8.99;100.00;100995.63;4994031;28;45553;-82
2022/02/15 03:00:11;;;;;;;;;2.00;2.00;;;;;8.93;100.00;100993.59;4993581;27;45426;-81
2022/02/15 03:02:37;;;;;;;;;3.00;2.00;;;;;8.87;100.00;100997.53;4993690;28;45542;-81
2022/02/15 03:05:03;;;;;;;;;3.00;1.00;;;;;8.78;100.00;101005.69;4994278;28;45274;-81
2022/02/15 03:07:28;;;;;;;;;3.00;1.00;;;;;8.76;100.00;101007.28;5093376;27;45476;-82
2022/02/15 03:09:54;;;;;;;;;6.25;3.00;;;;;8.72;100.00;101002.75;5098411;27;45428;-82
2022/02/15 03:12:20;;;;;;;;;1.75;1.75;;;;;8.72;100.00;101013.06;4976331;28;47783;-82
2022/02/15 03:14:47;;;;;;;;;1.75;1.75;;;;;8.74;100.00;101021.78;4994230;27;45379;-82
2022/02/15 03:17:13;;;;;;;;;2.00;1.50;;;;;8.76;100.00;101031.38;4993996;28;45504;-82
2022/02/15 03:19:38;;;;;;;;;2.75;1.00;;;;;8.82;100.00;101028.25;4994446;28;45547;-82
2022/02/15 03:22:04;;;;;;;;;3.00;1.50;;;;;8.80;100.00;101033.34;4992952;28;45390;-83
2022/02/15 03:24:30;;;;;;;;;2.25;1.00;;;;;8.83;100.00;101037.78;4994179;28;45324;-82
2022/02/15 03:26:55;;;;;;;;;1.50;1.50;;;;;8.87;100.00;101050.06;5037363;27;45410;-82
2022/02/15 03:29:21;;;;;;;;;2.75;1.25;;;;;8.88;100.00;101051.84;5031815;27;45568;-83
2022/02/15 03:31:46;;;;;;;;;0.75;0.75;;;;;8.80;100.00;101061.75;5015006;27;45498;-83
2022/02/15 03:34:12;;;;;;;;;1.50;1.50;;;;;8.78;100.00;101057.31;4993366;28;45377;-82
2022/02/15 03:36:38;;;;;;;;;1.25;1.25;;;;;8.81;100.00;101060.94;4994258;28;45298;-81
2022/02/15 03:39:08;;;;;;;;;5.00;1.00;;;;;8.84;100.00;101067.97;4994363;27;45521;-82
2022/02/15 03:44:18;;;;;;;;;2.00;1.25;;;;;8.77;100.00;101073.59;4993992;28;45350;-82
2022/02/15 03:46:44;;;;;;;;;1.75;1.00;;;;;8.75;100.00;101078.66;4993771;28;45345;-81
2022/02/15 03:49:11;;;;;;;;;2.75;2.00;;;;;8.72;100.00;101075.03;4994171;28;45365;-81
2022/02/15 03:51:40;;;;;;;;;4.75;2.00;;;;;8.65;100.00;101086.69;4993663;28;46305;-81
2022/02/15 03:54:06;;;;;;;;;5.00;0.75;;;;;8.57;100.00;101096.59;4993104;28;45981;-81
2022/02/15 03:56:32;;;;;;;;;3.00;3.00;;;;;8.55;100.00;101103.34;4981186;28;45460;-81
2022/02/15 03:59:01;;;;;;;;;4.25;2.25;;;;;8.54;100.00;101101.56;4976087;28;45327;-80
2022/02/15 04:01:27;;;;;;;;;1.00;1.00;;;;;8.56;100.00;101093.91;4993253;28;45387;-81
2022/02/15 04:03:53;;;;;;;;;2.00;2.00;;;;;8.56;100.00;101105.13;4995268;27;45865;-81
2022/02/15 04:06:19;;;;;;;;;2.25;0.50;;;;;8.56;100.00;101112.88;4992810;28;45382;-81
2022/02/15 04:08:44;;;;;;;;;1.25;0.25;;;;;8.56;100.00;101107.72;4993782;28;45435;-81
2022/02/15 04:11:10;;;;;;;;;2.00;2.00;;;;;8.55;100.00;101117.94;4993342;28;45794;-81
2022/02/15 04:13:36;;;;;;;;;3.00;2.00;;;;;8.55;100.00;101117.94;4993691;27;45511;-81
2022/02/15 04:16:02;;;;;;;;;1.25;1.00;;;;;8.53;100.00;101120.44;5056593;27;45588;-81
2022/02/15 04:18:28;;;;;;;;;4.50;1.00;;;;;8.50;100.00;101134.06;5076876;27;45496;-81
2022/02/15 04:20:54;;;;;;;;;2.00;1.00;;;;;8.51;100.00;101135.84;5040355;27;45786;-81
2022/02/15 04:23:19;;;;;;;;;2.25;2.25;;;;;8.50;100.00;101139.22;4992918;28;45186;-81
2022/02/15 04:25:45;;;;;;;;;2.50;1.75;;;;;8.50;100.00;101151.22;4993711;28;45410;-81
2022/02/15 04:28:10;;;;;;;;;2.25;1.75;;;;;8.57;100.00;101152.47;4993754;28;45312;-81
2022/02/15 04:30:36;;;;;;;;;2.25;1.25;;;;;8.57;100.00;101145.63;4993687;28;46165;-81
2022/02/15 04:33:02;;;;;;;;;1.00;1.00;;;;;8.59;100.00;101156.91;4992368;28;45473;-81
2022/02/15 04:35:28;;;;;;;;;4.75;2.00;;;;;8.57;100.00;101155.94;4996055;28;45473;-81
2022/02/15 04:37:54;;;;;;;;;1.00;1.00;;;;;8.56;100.00;101172.25;4993846;28;45523;-81
2022/02/15 04:40:19;;;;;;;;;2.00;2.00;;;;;8.56;100.00;101173.91;4992993;28;45307;-81
2022/02/15 04:42:45;;;;;;;;;2.00;2.00;;;;;8.48;100.00;101174.34;4993085;28;45264;-82
2022/02/15 04:45:11;;;;;;;;;3.00;2.00;;;;;8.44;100.00;101174.06;4992995;28;45608;-82
2022/02/15 04:47:37;;;;;;;;;3.25;2.00;;;;;8.41;100.00;101190.25;4993739;28;45338;-82
2022/02/15 04:50:02;;;;;;;;;1.25;1.25;;;;;8.36;100.00;101184.81;4993074;28;46007;-82
2022/02/15 04:52:28;;;;;;;;;5.00;1.00;;;;;8.33;100.00;101188.88;4992582;28;45453;-82
2022/02/15 04:54:54;;;;;;;;;2.00;1.00;;;;;8.24;100.00;101180.59;4993389;28;45335;-82
2022/02/15 04:57:19;;;;;;;;;1.00;1.00;;;;;8.19;100.00;101185.47;4975348;28;45450;-81
2022/02/15 04:59:45;;;;;;;;;2.75;0.25;;;;;8.13;100.00;101187.69;4991542;27;46125;-81
2022/02/15 05:02:12;;;;;;;;;2.50;2.00;;;;;8.13;100.00;101204.06;4975369;28;45387;-81
2022/02/15 05:04:49;;;;;;;;;2.50;2.50;;;;;8.14;100.00;101194.63;4993105;28;45442;-81
2022/02/15 05:07:20;;;;;;;;;2.25;0.25;;;;;8.12;100.00;101189.38;4992759;28;45516;-81
2022/02/15 05:09:46;;;;;;;;;1.25;1.25;;;;;8.11;100.00;101194.44;4992517;28;45436;-81
2022/02/15 05:12:13;;;;;;;;;0.25;0.25;;;;;8.12;100.00;101197.09;4991279;28;45374;-81
2022/02/15 05:14:39;;;;;;;;;3.00;3.00;;;;;8.08;100.00;101199.41;4991941;28;45441;-81
2022/02/15 05:17:05;;;;;;;;;3.25;1.25;;;;;8.02;100.00;101195.66;4994493;28;45429;-81
2022/02/15 05:19:30;;;;;;;;;2.25;1.00;;;;;8.03;100.00;101202.63;4995037;27;46456;-81
2022/02/15 05:21:56;;;;;;;;;1.00;0.00;;;;;7.98;100.00;101196.28;4995745;27;45503;-81
2022/02/15 05:24:22;;;;;;;;;3.75;1.00;;;;;7.99;100.00;101208.38;4995101;28;45506;-81
2022/02/15 05:26:47;;;;;;;;;2.00;2.00;;;;;8.00;100.00;101201.50;4996167;28;45313;-81
2022/02/15 05:29:13;;;;;;;;;2.25;2.25;;;;;7.98;100.00;101211.75;4994475;28;45527;-81
2022/02/15 05:31:39;;;;;;;;;1.25;1.25;;;;;7.97;100.00;101214.22;4993449;27;45397;-81
2022/02/15 05:34:04;;;;;;;;;2.50;1.50;;;;;8.00;100.00;101211.81;4994452;28;45758;-81
2022/02/15 05:36:33;;;;;;;;;4.25;1.50;;;;;8.06;100.00;101212.22;4994878;28;45570;-81
2022/02/15 05:38:59;;;;;;;;;0.75;0.50;;;;;8.08;100.00;101210.63;4976880;28;47869;-81
2022/02/15 05:41:25;;;;;;;;;2.00;2.00;;;;;8.08;100.00;101208.06;4995049;27;45748;-80
2022/02/15 05:43:51;;;;;;;;;3.00;1.50;;;;;8.14;100.00;101213.56;4995667;28;45367;-81
2022/02/15 05:46:17;;;;;;;;;4.00;2.75;;;;;8.15;100.00;101209.31;4995922;28;45521;-81
2022/02/15 05:48:42;;;;;;;;;2.00;1.00;;;;;8.17;100.00;101212.84;4994132;27;46871;-81
2022/02/15 05:51:08;;;;;;;;;3.00;1.25;;;;;8.20;100.00;101213.06;4995209;28;45428;-81
2022/02/15 05:53:34;;;;;;;;;3.75;2.50;;;;;8.22;100.00;101221.78;5095935;27;45438;-80
2022/02/15 05:56:02;;;;;;;;;2.75;2.25;;;;;8.24;100.00;101215.03;5037977;27;45190;-81
2022/02/15 05:58:29;;;;;;;;;2.25;2.00;;;;;8.28;100.00;101218.69;4995169;28;45271;-81
2022/02/15 06:00:56;;;;;;;;;2.75;1.50;;;;;8.30;100.00;101214.50;4995755;28;45362;-81
2022/02/15 06:06:06;;;;;;;;;1.00;1.00;;;;;8.31;100.00;101217.19;4990348;28;45389;-80
2022/02/15 06:08:34;;;;;;;;;2.00;2.00;;;;;8.29;100.00;101223.06;4994731;27;47374;-81
2022/02/15 06:11:00;;;;;;;;;1.00;1.00;;;;;8.19;100.00;101224.16;4994995;28;45242;-80
2022/02/15 06:13:25;;;;;;;;;1.50;1.00;;;;;8.14;100.00;101235.91;4995688;28;45268;-82
2022/02/15 06:15:51;;;;;;;;;1.75;0.25;;;;;8.10;100.00;101233.91;4999052;28;45304;-89
2022/02/15 06:18:17;;;;;;;;;1.00;1.00;;;;;8.06;100.00;101241.47;4998449;27;46489;-85
2022/02/15 06:20:42;;;;;;;;;4.00;1.00;;;;;8.07;100.00;101242.38;4996702;28;45300;-87
2022/02/15 06:23:08;;;;;;;;;3.50;1.00;;;;;8.11;100.00;101244.31;4996660;28;45252;-87
2022/02/15 06:25:34;;;;;;;;;1.00;1.00;;;;;8.06;100.00;101250.91;4995223;28;45648;-83
2022/02/15 06:28:00;;;;;;;;;2.00;2.00;;;;;8.04;100.00;101243.03;4993437;28;45730;-81
2022/02/15 06:30:26;;;;;;;;;4.75;2.25;;;;;8.02;100.00;101254.97;4995525;27;45371;-83
2022/02/15 06:32:52;;;;;;;;;2.00;1.00;;;;;7.99;100.00;101253.91;4994305;27;45374;-84
2022/02/15 06:35:18;;;;;;;;;1.50;1.00;;;;;7.92;100.00;101257.78;4993407;28;45806;-84
2022/02/15 06:37:50;;;;;;;;;1.00;1.00;;;;;7.88;100.00;101260.94;4995522;28;46389;-88
2022/02/15 06:40:17;;;;;;;;;1.25;1.25;;;;;7.82;100.00;101263.16;4994606;28;45488;-87
2022/02/15 06:42:46;;;;;;;;;1.25;1.00;;;;;7.77;100.00;101255.13;5000402;27;45533;-85
2022/02/15 06:45:12;;;;;;;;;1.75;1.25;;;;;7.77;100.00;101262.88;4994497;28;45377;-85
2022/02/15 06:47:39;;;;;;;;;3.00;1.25;;;;;7.75;100.00;101264.44;5019582;27;45880;-89
2022/02/15 06:50:05;;;;;;;;;7.00;2.00;;;;;7.79;100.00;101283.56;5010290;27;45800;-85
2022/02/15 06:52:32;;;;;;;;;1.50;1.50;;;;;7.79;100.00;101284.44;4996424;28;45311;-86
2022/02/15 06:54:57;;;;;;;;;4.50;0.50;;;;;7.83;100.00;101289.00;5004706;28;45671;-82
2022/02/15 06:57:23;;;;;;;;;3.75;1.75;;;;;7.88;100.00;101297.03;4982688;28;46020;-81
2022/02/15 06:59:49;;;;;;;;;3.00;2.50;;;;;7.87;100.00;101292.69;4993656;28;45386;-82
2022/02/15 07:02:18;;;;;;;;;1.75;1.75;;;;;7.88;100.00;101289.31;4976541;28;45563;-81
2022/02/15 07:04:45;;;;;;;;;4.00;1.25;;;;;7.93;100.00;101297.34;4994817;27;45453;-81
2022/02/15 07:07:11;;;;;;;;;4.25;2.25;;;;;7.95;100.00;101303.47;4994276;28;46214;-87
2022/02/15 07:09:37;;;;;;;;;2.00;2.00;;;;;7.89;100.00;101288.50;4994846;28;45874;-87
2022/02/15 07:12:03;;;;;;;;;2.50;2.00;;;;;7.88;100.00;101287.59;4978151;28;45430;-83
2022/02/15 07:14:29;;;;;;;;;2.25;2.25;;;;;7.92;100.00;101291.31;4994620;28;45589;-85
2022/02/15 07:16:54;;;;;;;;;3.00;1.50;;;;;7.95;100.00;101298.31;4994609;27;46124;-84
2022/02/15 07:19:20;;;;;;;;;1.00;1.00;;;;;7.96;100.00;101297.53;4993650;28;45351;-78
2022/02/15 07:21:47;;;;;;;;;4.25;1.25;;;;;7.98;100.00;101309.72;4976710;28;45424;-80
2022/02/15 07:24:13;;;;;;;;;3.00;1.25;;;;;7.97;100.00;101307.94;4976003;28;45592;-80
2022/02/15 07:26:38;;;;;;;;;2.00;2.00;;;;;7.96;100.00;101308.72;4993136;27;45390;-80
2022/02/15 07:29:04;;;;;;;;;2.75;2.00;;;;;7.95;100.00;101308.63;4993559;28;45486;-81
2022/02/15 07:31:30;;;;;;;;;6.00;4.00;;;;;7.92;100.00;101311.00;4993859;28;45513;-80
2022/02/15 07:33:55;;;;;;;;;2.00;2.00;;;;;7.92;100.00;101308.44;4977101;28;45551;-81
2022/02/15 07:36:21;;;;;;;;;4.00;2.00;;;;;7.92;100.00;101309.34;4993830;28;45685;-83
2022/02/15 07:38:46;;;;;;;;;3.00;1.00;;;;;7.94;100.00;101312.00;4994083;28;45438;-81
2022/02/15 07:41:12;;;;;;;;;2.50;2.00;;;;;7.97;100.00;101310.50;4993900;28;45367;-84
2022/02/15 07:43:38;;;;;;;;;3.25;2.25;;;;;7.97;100.00;101315.66;4994257;28;45336;-85
2022/02/15 07:46:06;;;;;;;;;1.50;1.50;;;;;7.96;100.00;101326.78;4975703;28;47722;-81
2022/02/15 07:48:32;;;;;;;;;3.25;2.00;;;;;7.96;100.00;101326.78;4994168;28;45396;-80
2022/02/15 07:50:57;;;;;;;;;2.25;2.00;;;;;7.95;100.00;101330.16;4976653;28;45380;-80
2022/02/15 07:53:23;;;;;;;;;1.50;1.50;;;;;7.99;100.00;101326.09;4994397;28;45188;-80
2022/02/15 07:55:49;;;;;;;;;1.25;1.00;;;;;8.00;100.00;101340.75;4993130;27;45474;-81
2022/02/15 07:58:14;;;;;;;;;2.00;2.00;;;;;8.02;100.00;101334.00;4993825;28;45353;-81
2022/02/15 08:00:40;;;;;;;;;2.00;2.00;;;;;8.00;100.00;101333.00;4993957;27;45272;-81
2022/02/15 08:03:06;;;;;;;;;3.75;2.00;;;;;7.95;100.00;101335.31;4976093;28;45380;-81
2022/02/15 08:05:31;;;;;;;;;2.25;1.25;;;;;7.93;100.00;101356.63;4975793;28;46377;-81
2022/02/15 08:07:58;;;;;;;;;1.25;1.25;;;;;7.94;100.00;101358.41;4992802;28;45611;-81
2022/02/15 08:10:26;;;;;;;;;3.00;2.00;;;;;7.95;100.00;101355.94;4992650;28;45541;-81
2022/02/15 08:13:01;;;;;;;;;2.75;2.75;;;;;7.98;100.00;101353.56;4993932;28;45237;-81
2022/02/15 08:15:36;;;;;;;;;4.00;3.00;;;;;7.98;100.00;101363.00;5002806;28;45272;-81
2022/02/15 08:18:03;;;;;;;;;1.75;1.75;;;;;8.00;100.00;101362.28;4993495;28;45316;-81
2022/02/15 08:20:30;;;;;;;;;2.00;1.00;;;;;7.98;100.00;101369.03;4993555;28;45462;-81
2022/02/15 08:22:56;;;;;;;;;2.50;2.50;;;;;7.99;100.00;101355.34;4996360;28;45357;-80
2022/02/15 08:25:22;;;;;;;;;5.25;1.00;;;;;7.99;100.00;101360.50;4992998;28;45772;-81
2022/02/15 08:27:48;;;;;;;;;2.25;2.00;;;;;7.98;100.00;101360.41;4993271;28;45336;-81
2022/02/15 08:30:16;;;;;;;;;2.00;2.00;;;;;7.96;100.00;101373.19;4993272;28;45378;-81
2022/02/15 08:32:41;;;;;;;;;2.00;2.00;;;;;7.98;100.00;101381.91;4976137;28;45308;-81
2022/02/15 08:35:08;;;;;;;;;4.25;2.50;;;;;7.98;100.00;101384.50;4992947;28;45216;-80
2022/02/15 08:37:34;;;;;;;;;2.75;1.00;;;;;7.98;100.00;101388.78;4993192;28;45483;-80
2022/02/15 08:40:03;;;;;;;;;1.00;1.00;;;;;7.99;100.00;101382.81;4993207;27;45386;-80
2022/02/15 08:42:28;;;;;;;;;3.00;1.25;;;;;7.95;100.00;101391.16;4993677;28;45640;-81
2022/02/15 08:44:54;;;;;;;;;2.25;1.50;;;;;7.99;100.00;101396.59;4993358;28;45624;-81
2022/02/15 08:47:23;;;;;;;;;1.25;1.00;;;;;8.01;100.00;101392.44;4992889;28;45238;-80
2022/02/15 08:49:53;;;;;;;;;6.50;1.00;;;;;8.04;100.00;101384.00;4992191;28;45456;-80
2022/02/15 08:52:23;;;;;;;;;2.25;1.75;;;;;8.03;100.00;101380.53;4993251;28;45548;-81
2022/02/15 08:54:49;;;;;;;;;1.75;1.75;;;;;8.03;100.00;101377.97;4992835;28;45592;-81
2022/02/15 08:57:15;;;;;;;;;3.00;1.25;;;;;8.08;100.00;101377.34;4992544;28;45315;-80
2022/02/15 08:59:42;;;;;;;;;2.50;2.00;;;;;8.10;100.00;101375.75;4992963;28;45452;-80
2022/02/15 09:02:08;;;;;;;;;1.00;1.00;;;;;8.11;100.00;101381.00;4994091;28;45556;-81
2022/02/15 09:04:34;;;;;;;;;1.75;1.00;;;;;8.13;100.00;101363.94;4976285;28;47049;-81
2022/02/15 09:07:00;;;;;;;;;1.25;1.00;;;;;8.17;100.00;101354.72;4975552;28;45394;-81
2022/02/15 09:09:26;;;;;;;;;4.75;1.25;;;;;8.21;100.00;101346.38;4993868;28;45300;-81
2022/02/15 09:11:52;;;;;;;;;2.00;1.25;;;;;8.23;100.00;101342.22;4993538;28;45169;-81
2022/02/15 09:14:17;;;;;;;;;2.00;1.50;;;;;8.25;100.00;101340.63;4992545;28;46179;-82
2022/02/15 09:16:45;;;;;;;;;2.00;2.00;;;;;8.34;100.00;101345.47;4993437;28;45212;-82
2022/02/15 09:19:11;;;;;;;;;1.00;1.00;;;;;8.38;100.00;101339.72;4992623;28;45370;-82
2022/02/15 09:21:37;;;;;;;;;3.00;3.00;;;;;8.44;100.00;101354.69;4992762;27;45539;-82
2022/02/15 09:24:04;;;;;;;;;3.50;1.00;;;;;8.51;100.00;101364.59;4992524;27;46068;-81
2022/02/15 09:26:30;;;;;;;;;2.50;2.00;;;;;8.54;100.00;101356.16;4992595;28;45343;-81
2022/02/15 09:28:56;;;;;;;;;1.75;1.50;;;;;8.53;100.00;101355.28;4992854;28;45270;-81
2022/02/15 09:31:24;;;;;;;;;5.50;2.50;;;;;8.51;100.00;101356.88;4992619;28;45613;-82
2022/02/15 09:33:52;;;;;;;;;2.00;1.00;;;;;8.57;100.00;101358.94;5005825;28;45587;-82
2022/02/15 09:36:22;;;;;;;;;4.00;1.00;;;;;8.59;100.00;101352.19;4998680;28;45265;-81
2022/02/15 09:38:48;;;;;;;;;6.50;2.75;;;;;8.55;100.00;101353.69;4983293;28;45292;-81
2022/02/15 09:41:15;;;;;;;;;3.00;1.00;;;;;8.58;100.00;101352.97;4993094;28;45504;-81
2022/02/15 09:43:41;;;;;;;;;4.25;1.75;;;;;8.61;100.00;101351.47;4993949;28;46451;-82
2022/02/15 09:46:11;;;;;;;;;1.00;1.00;;;;;8.65;100.00;101357.72;4999525;27;46367;-82
2022/02/15 09:48:37;;;;;;;;;1.25;1.25;;;;;8.68;100.00;101355.31;5000889;28;45185;-82
2022/02/15 09:51:05;;;;;;;;;3.25;1.00;;;;;8.72;100.00;101356.41;4997709;27;45510;-81
2022/02/15 09:53:31;;;;;;;;;2.50;1.00;;;;;8.76;100.00;101353.22;4993369;28;45376;-82
2022/02/15 09:55:56;;;;;;;;;4.00;1.25;;;;;8.77;100.00;101358.47;4993323;28;45433;-82
2022/02/15 09:58:22;;;;;;;;;1.50;1.00;;;;;8.83;100.00;101355.34;4992634;27;45323;-81
2022/02/15 10:00:48;;;;;;;;;2.00;1.00;;;;;8.91;100.00;101355.84;4993067;28;45402;-81
2022/02/15 10:03:15;;;;;;;;;2.50;1.25;;;;;8.99;100.00;101354.59;4995899;28;46175;-81
2022/02/15 10:05:46;;;;;;;;;3.00;1.00;;;;;9.07;100.00;101347.31;4977695;28;45688;-81
2022/02/15 10:08:11;;;;;;;;;1.50;0.00;;;;;9.19;100.00;101340.28;4997327;28;45490;-81
2022/02/15 10:10:39;;;;;;;;;2.75;2.00;;;;;9.39;100.00;101351.81;4980114;28;45300;-81
2022/02/15 10:13:09;;;;;;;;;3.00;1.25;;;;;9.53;100.00;101360.34;4981320;28;47686;-81
2022/02/15 10:15:41;;;;;;;;;1.75;1.75;;;;;9.68;100.00;101355.16;5002314;28;45339;-82
2022/02/15 10:18:11;;;;;;;;;4.75;1.75;;;;;9.84;100.00;101361.19;4999487;28;45281;-81
2022/02/15 10:20:40;;;;;;;;;4.50;1.75;;;;;9.96;100.00;101366.19;4977153;28;45851;-81
2022/02/15 10:23:24;;;;;;;;;3.50;2.00;;;;;10.06;100.00;101373.66;4994282;27;46028;-82
2022/02/15 10:25:51;;;;;;;;;1.00;1.00;;;;;10.07;100.00;101373.72;4994814;28;45694;-82
2022/02/15 10:28:18;;;;;;;;;1.00;1.00;;;;;10.10;100.00;101372.13;4976832;28;45451;-81
2022/02/15 10:30:45;;;;;;;;;5.75;1.75;;;;;10.11;100.00;101372.19;4994859;27;45322;-81
2022/02/15 10:33:11;;;;;;;;;2.00;1.75;;;;;10.09;100.00;101378.09;4994363;28;45637;-81
2022/02/15 10:35:40;;;;;;;;;1.00;1.00;;;;;10.04;100.00;101367.50;4994362;28;45340;-81
2022/02/15 10:38:06;;;;;;;;;3.00;2.00;;;;;9.99;100.00;101375.00;4976716;28;45549;-81
2022/02/15 10:40:34;;;;;;;;;1.50;1.25;;;;;9.96;100.00;101369.66;4994842;27;45216;-81
2022/02/15 10:42:59;;;;;;;;;1.00;0.25;;;;;9.97;100.00;101362.78;4994035;28;45595;-80
2022/02/15 10:45:28;;;;;;;;;3.25;1.25;;;;;9.95;100.00;101343.72;4994761;28;45419;-81
2022/02/15 10:47:56;;;;;;;;;1.75;1.25;;;;;9.97;100.00;101347.28;4977024;28;45344;-80
2022/02/15 10:50:22;;;;;;;;;1.00;1.00;;;;;10.00;100.00;101347.44;4994540;28;45243;-82
2022/02/15 10:52:48;;;;;;;;;1.00;1.00;;;;;10.05;100.00;101339.13;4978628;28;46704;-81
2022/02/15 10:55:13;;;;;;;;;3.50;2.00;;;;;10.12;100.00;101336.88;4999570;28;45260;-81
2022/02/15 10:57:40;;;;;;;;;2.00;1.00;;;;;10.16;100.00;101339.72;4994602;27;45388;-82
2022/02/15 11:00:12;;;;;;;;;3.00;1.00;;;;;10.21;100.00;101332.22;4994346;28;45372;-81
2022/02/15 11:02:40;;;;;;;;;1.00;1.00;;;;;10.24;100.00;101337.56;4994213;28;46573;-81
2022/02/15 11:05:08;;;;;;;;;0.25;0.25;;;;;10.29;100.00;101332.63;4994199;28;45445;-81
2022/02/15 11:07:36;;;;;;;;;4.25;3.25;;;;;10.34;100.00;101333.75;4994583;27;45461;-80
2022/02/15 11:10:19;;;;;;;;;1.25;1.00;;;;;10.38;100.00;101328.84;4994402;27;45255;-80
2022/02/15 11:12:55;;;;;;;;;2.25;0.00;;;;;10.42;100.00;101313.50;4993814;28;46069;-87
2022/02/15 11:15:25;;;;;;;;;0.75;0.75;;;;;10.46;100.00;101342.22;4993973;28;45442;-81
2022/02/15 11:17:56;;;;;;;;;3.00;1.00;;;;;10.47;100.00;101310.34;4994186;28;45346;-81
2022/02/15 11:20:24;;;;;;;;;2.25;1.00;;;;;10.58;100.00;101315.22;4976344;28;45531;-81
2022/02/15 11:22:53;;;;;;;;;3.00;1.75;;;;;10.65;100.00;101319.88;4994156;28;45468;-82
2022/02/15 11:25:48;;;;;;;;;2.25;1.75;;;;;10.74;100.00;101322.09;5000651;28;45421;-78
2022/02/15 11:28:16;;;;;;;;;1.00;1.00;;;;;10.85;100.00;101323.53;4998576;28;45361;-81